sensor_id;sensor_type;location;lat;lon;timestamp;P1;durP1;ratioP1;P2;durP2;ratioP2
55684;SDS011;41883;49.544;8.646;2022-09-09T00:00:47;1.67;;;0.80;;
55684;SDS011;41883;49.544;8.646;2022-09-09T00:03:21;1.52;;;0.70;;
55684;SDS011;41883;49.544;8.646;2022-09-09T00:09:15;2.92;;;0.70;;
55684;SDS011;41883;49.544;8.646;2022-09-09T00:11:49;1.30;;;0.60;;
55684;SDS011;41883;49.544;8.646;2022-09-09T00:14:26;2.13;;;0.80;;
55684;SDS011;41883;49.544;8.646;2022-09-09T00:17:04;1.35;;;0.70;;
55684;SDS011;41883;49.544;8.646;2022-09-09T00:19:40;3.13;;;0.80;;
55684;SDS011;41883;49.544;8.646;2022-09-09T00:24:44;2.40;;;1.02;;
55684;SDS011;41883;49.544;8.646;2022-09-09T00:30:12;2.75;;;0.80;;
55684;SDS011;41883;49.544;8.646;2022-09-09T00:33:33;3.28;;;0.95;;
55684;SDS011;41883;49.544;8.646;2022-09-09T00:35:41;3.28;;;0.88;;
55684;SDS011;41883;49.544;8.646;2022-09-09T00:38:19;1.55;;;0.80;;
55684;SDS011;41883;49.544;8.646;2022-09-09T00:40:51;3.53;;;1.08;;
55684;SDS011;41883;49.544;8.646;2022-09-09T00:48:56;1.10;;;0.63;;
55684;SDS011;41883;49.544;8.646;2022-09-09T00:51:40;2.58;;;0.75;;
55684;SDS011;41883;49.544;8.646;2022-09-09T00:54:23;3.08;;;1.13;;
55684;SDS011;41883;49.544;8.646;2022-09-09T00:59:32;3.13;;;0.93;;
55684;SDS011;41883;49.544;8.646;2022-09-09T01:02:07;2.38;;;1.00;;
55684;SDS011;41883;49.544;8.646;2022-09-09T01:04:43;4.82;;;0.93;;
55684;SDS011;41883;49.544;8.646;2022-09-09T01:07:27;2.95;;;1.00;;
55684;SDS011;41883;49.544;8.646;2022-09-09T01:09:56;4.65;;;0.93;;
55684;SDS011;41883;49.544;8.646;2022-09-09T01:12:24;2.70;;;0.80;;
55684;SDS011;41883;49.544;8.646;2022-09-09T01:15:12;3.17;;;1.02;;
55684;SDS011;41883;49.544;8.646;2022-09-09T01:17:53;2.72;;;1.10;;
55684;SDS011;41883;49.544;8.646;2022-09-09T01:26:11;3.00;;;1.27;;
55684;SDS011;41883;49.544;8.646;2022-09-09T01:28:46;4.20;;;1.10;;
55684;SDS011;41883;49.544;8.646;2022-09-09T01:31:16;3.85;;;1.30;;
55684;SDS011;41883;49.544;8.646;2022-09-09T01:33:44;2.23;;;1.00;;
55684;SDS011;41883;49.544;8.646;2022-09-09T01:36:12;2.72;;;1.20;;
55684;SDS011;41883;49.544;8.646;2022-09-09T01:38:48;4.97;;;1.23;;
55684;SDS011;41883;49.544;8.646;2022-09-09T01:41:13;2.77;;;1.10;;
55684;SDS011;41883;49.544;8.646;2022-09-09T01:43:39;3.08;;;0.85;;
55684;SDS011;41883;49.544;8.646;2022-09-09T01:46:04;2.45;;;1.00;;
55684;SDS011;41883;49.544;8.646;2022-09-09T01:48:30;3.65;;;1.20;;
55684;SDS011;41883;49.544;8.646;2022-09-09T01:50:55;6.22;;;1.58;;
55684;SDS011;41883;49.544;8.646;2022-09-09T01:53:21;4.65;;;1.20;;
55684;SDS011;41883;49.544;8.646;2022-09-09T02:01:34;3.97;;;1.10;;
55684;SDS011;41883;49.544;8.646;2022-09-09T02:07:02;2.72;;;1.17;;
55684;SDS011;41883;49.544;8.646;2022-09-09T02:09:34;5.80;;;1.30;;
55684;SDS011;41883;49.544;8.646;2022-09-09T02:12:03;4.38;;;1.27;;
55684;SDS011;41883;49.544;8.646;2022-09-09T02:14:38;3.88;;;1.40;;
55684;SDS011;41883;49.544;8.646;2022-09-09T02:17:11;3.00;;;1.17;;
55684;SDS011;41883;49.544;8.646;2022-09-09T02:19:44;5.38;;;1.48;;
55684;SDS011;41883;49.544;8.646;2022-09-09T02:22:15;2.72;;;1.20;;
55684;SDS011;41883;49.544;8.646;2022-09-09T02:24:44;3.10;;;1.13;;
55684;SDS011;41883;49.544;8.646;2022-09-09T02:27:11;3.47;;;1.20;;
55684;SDS011;41883;49.544;8.646;2022-09-09T02:29:39;4.50;;;1.20;;
55684;SDS011;41883;49.544;8.646;2022-09-09T02:32:08;3.45;;;1.20;;
55684;SDS011;41883;49.544;8.646;2022-09-09T02:34:38;5.07;;;1.02;;
55684;SDS011;41883;49.544;8.646;2022-09-09T02:37:08;3.83;;;1.20;;
55684;SDS011;41883;49.544;8.646;2022-09-09T02:39:34;3.15;;;1.30;;
55684;SDS011;41883;49.544;8.646;2022-09-09T02:42:00;3.45;;;1.17;;
55684;SDS011;41883;49.544;8.646;2022-09-09T02:44:25;4.68;;;1.30;;
55684;SDS011;41883;49.544;8.646;2022-09-09T02:47:05;3.53;;;1.40;;
55684;SDS011;41883;49.544;8.646;2022-09-09T02:52:47;5.45;;;1.40;;
55684;SDS011;41883;49.544;8.646;2022-09-09T02:58:28;3.53;;;1.30;;
55684;SDS011;41883;49.544;8.646;2022-09-09T03:00:54;3.70;;;1.35;;
55684;SDS011;41883;49.544;8.646;2022-09-09T03:03:22;2.97;;;1.30;;
55684;SDS011;41883;49.544;8.646;2022-09-09T03:05:47;4.65;;;1.50;;
55684;SDS011;41883;49.544;8.646;2022-09-09T03:08:13;4.32;;;1.40;;
55684;SDS011;41883;49.544;8.646;2022-09-09T03:10:38;3.33;;;1.50;;
55684;SDS011;41883;49.544;8.646;2022-09-09T03:13:04;3.22;;;1.30;;
55684;SDS011;41883;49.544;8.646;2022-09-09T03:15:30;2.70;;;1.40;;
55684;SDS011;41883;49.544;8.646;2022-09-09T03:17:56;4.82;;;1.50;;
55684;SDS011;41883;49.544;8.646;2022-09-09T03:20:22;2.55;;;1.10;;
55684;SDS011;41883;49.544;8.646;2022-09-09T03:22:48;3.65;;;1.48;;
55684;SDS011;41883;49.544;8.646;2022-09-09T03:25:14;4.97;;;1.70;;
55684;SDS011;41883;49.544;8.646;2022-09-09T03:27:39;4.22;;;1.40;;
55684;SDS011;41883;49.544;8.646;2022-09-09T03:30:05;4.70;;;1.40;;
55684;SDS011;41883;49.544;8.646;2022-09-09T03:32:31;3.55;;;1.15;;
55684;SDS011;41883;49.544;8.646;2022-09-09T03:34:56;2.40;;;1.10;;
55684;SDS011;41883;49.544;8.646;2022-09-09T03:37:22;3.67;;;1.23;;
55684;SDS011;41883;49.544;8.646;2022-09-09T03:39:47;3.35;;;1.20;;
55684;SDS011;41883;49.544;8.646;2022-09-09T03:42:13;2.65;;;1.10;;
55684;SDS011;41883;49.544;8.646;2022-09-09T03:44:39;4.78;;;1.20;;
55684;SDS011;41883;49.544;8.646;2022-09-09T03:47:06;4.10;;;1.20;;
55684;SDS011;41883;49.544;8.646;2022-09-09T03:49:32;3.17;;;1.10;;
55684;SDS011;41883;49.544;8.646;2022-09-09T03:51:57;3.93;;;1.20;;
55684;SDS011;41883;49.544;8.646;2022-09-09T03:54:24;3.95;;;1.20;;
55684;SDS011;41883;49.544;8.646;2022-09-09T03:56:50;5.65;;;1.30;;
55684;SDS011;41883;49.544;8.646;2022-09-09T03:59:15;3.08;;;1.10;;
55684;SDS011;41883;49.544;8.646;2022-09-09T04:01:40;3.35;;;1.13;;
55684;SDS011;41883;49.544;8.646;2022-09-09T04:04:06;2.23;;;1.10;;
55684;SDS011;41883;49.544;8.646;2022-09-09T04:06:31;3.25;;;1.27;;
55684;SDS011;41883;49.544;8.646;2022-09-09T04:08:56;2.40;;;1.10;;
55684;SDS011;41883;49.544;8.646;2022-09-09T04:11:22;3.13;;;0.90;;
55684;SDS011;41883;49.544;8.646;2022-09-09T04:13:47;2.55;;;0.90;;
55684;SDS011;41883;49.544;8.646;2022-09-09T04:16:13;2.45;;;0.90;;
55684;SDS011;41883;49.544;8.646;2022-09-09T04:18:39;3.88;;;1.00;;
55684;SDS011;41883;49.544;8.646;2022-09-09T04:21:05;3.88;;;0.95;;
55684;SDS011;41883;49.544;8.646;2022-09-09T04:23:32;3.95;;;1.00;;
55684;SDS011;41883;49.544;8.646;2022-09-09T04:25:59;4.55;;;0.98;;
55684;SDS011;41883;49.544;8.646;2022-09-09T04:28:26;2.78;;;1.20;;
55684;SDS011;41883;49.544;8.646;2022-09-09T04:30:54;2.30;;;0.80;;
55684;SDS011;41883;49.544;8.646;2022-09-09T04:33:23;2.72;;;0.90;;
55684;SDS011;41883;49.544;8.646;2022-09-09T04:35:51;2.90;;;1.10;;
55684;SDS011;41883;49.544;8.646;2022-09-09T04:38:18;2.08;;;0.80;;
55684;SDS011;41883;49.544;8.646;2022-09-09T04:40:47;3.90;;;1.42;;
55684;SDS011;41883;49.544;8.646;2022-09-09T04:43:14;3.13;;;1.02;;
55684;SDS011;41883;49.544;8.646;2022-09-09T04:45:40;3.35;;;1.02;;
55684;SDS011;41883;49.544;8.646;2022-09-09T04:48:06;2.72;;;0.80;;
55684;SDS011;41883;49.544;8.646;2022-09-09T04:50:32;3.50;;;1.10;;
55684;SDS011;41883;49.544;8.646;2022-09-09T04:53:04;1.83;;;0.80;;
55684;SDS011;41883;49.544;8.646;2022-09-09T04:55:30;2.33;;;0.90;;
55684;SDS011;41883;49.544;8.646;2022-09-09T04:57:56;2.35;;;0.70;;
55684;SDS011;41883;49.544;8.646;2022-09-09T05:00:22;2.03;;;0.70;;
55684;SDS011;41883;49.544;8.646;2022-09-09T05:02:49;2.45;;;0.70;;
55684;SDS011;41883;49.544;8.646;2022-09-09T05:05:14;2.67;;;1.05;;
55684;SDS011;41883;49.544;8.646;2022-09-09T05:07:40;0.90;;;0.65;;
55684;SDS011;41883;49.544;8.646;2022-09-09T05:10:05;3.00;;;0.80;;
55684;SDS011;41883;49.544;8.646;2022-09-09T05:12:31;2.50;;;1.00;;
55684;SDS011;41883;49.544;8.646;2022-09-09T05:14:56;2.75;;;1.08;;
55684;SDS011;41883;49.544;8.646;2022-09-09T05:17:22;2.45;;;0.85;;
55684;SDS011;41883;49.544;8.646;2022-09-09T05:19:48;2.67;;;0.80;;
55684;SDS011;41883;49.544;8.646;2022-09-09T05:22:17;4.47;;;0.95;;
55684;SDS011;41883;49.544;8.646;2022-09-09T05:24:47;2.28;;;0.93;;
55684;SDS011;41883;49.544;8.646;2022-09-09T05:27:15;2.85;;;0.95;;
55684;SDS011;41883;49.544;8.646;2022-09-09T05:29:43;2.47;;;0.80;;
55684;SDS011;41883;49.544;8.646;2022-09-09T05:32:09;2.33;;;0.90;;
55684;SDS011;41883;49.544;8.646;2022-09-09T05:34:35;2.28;;;0.85;;
55684;SDS011;41883;49.544;8.646;2022-09-09T05:37:00;2.38;;;0.98;;
55684;SDS011;41883;49.544;8.646;2022-09-09T05:39:25;2.88;;;0.85;;
55684;SDS011;41883;49.544;8.646;2022-09-09T05:41:50;2.57;;;0.97;;
55684;SDS011;41883;49.544;8.646;2022-09-09T05:44:16;1.90;;;0.90;;
55684;SDS011;41883;49.544;8.646;2022-09-09T05:46:41;1.63;;;0.90;;
55684;SDS011;41883;49.544;8.646;2022-09-09T05:49:06;2.67;;;0.90;;
55684;SDS011;41883;49.544;8.646;2022-09-09T05:51:33;2.88;;;0.90;;
55684;SDS011;41883;49.544;8.646;2022-09-09T05:53:58;3.00;;;1.00;;
55684;SDS011;41883;49.544;8.646;2022-09-09T05:56:24;4.88;;;0.70;;
55684;SDS011;41883;49.544;8.646;2022-09-09T05:58:52;2.80;;;0.80;;
55684;SDS011;41883;49.544;8.646;2022-09-09T06:01:22;3.53;;;0.90;;
55684;SDS011;41883;49.544;8.646;2022-09-09T06:03:48;1.65;;;0.85;;
55684;SDS011;41883;49.544;8.646;2022-09-09T06:06:15;2.05;;;1.13;;
55684;SDS011;41883;49.544;8.646;2022-09-09T06:08:43;3.22;;;1.00;;
55684;SDS011;41883;49.544;8.646;2022-09-09T06:11:11;2.90;;;0.90;;
55684;SDS011;41883;49.544;8.646;2022-09-09T06:13:38;3.22;;;0.93;;
55684;SDS011;41883;49.544;8.646;2022-09-09T06:16:11;6.85;;;1.10;;
55684;SDS011;41883;49.544;8.646;2022-09-09T06:18:38;2.22;;;0.95;;
55684;SDS011;41883;49.544;8.646;2022-09-09T06:21:05;4.40;;;1.17;;
55684;SDS011;41883;49.544;8.646;2022-09-09T06:23:33;4.22;;;0.90;;
55684;SDS011;41883;49.544;8.646;2022-09-09T06:28:44;3.47;;;0.98;;
55684;SDS011;41883;49.544;8.646;2022-09-09T06:31:11;1.67;;;0.70;;
55684;SDS011;41883;49.544;8.646;2022-09-09T06:33:39;2.90;;;0.70;;
55684;SDS011;41883;49.544;8.646;2022-09-09T06:36:07;1.45;;;0.73;;
55684;SDS011;41883;49.544;8.646;2022-09-09T06:38:36;2.47;;;0.70;;
55684;SDS011;41883;49.544;8.646;2022-09-09T06:41:01;4.10;;;1.00;;
55684;SDS011;41883;49.544;8.646;2022-09-09T06:43:26;2.83;;;0.85;;
55684;SDS011;41883;49.544;8.646;2022-09-09T06:45:56;2.35;;;0.80;;
55684;SDS011;41883;49.544;8.646;2022-09-09T06:48:23;2.30;;;0.90;;
55684;SDS011;41883;49.544;8.646;2022-09-09T06:50:48;2.22;;;1.00;;
55684;SDS011;41883;49.544;8.646;2022-09-09T06:53:17;1.90;;;0.70;;
55684;SDS011;41883;49.544;8.646;2022-09-09T06:55:44;2.63;;;0.80;;
55684;SDS011;41883;49.544;8.646;2022-09-09T06:58:10;2.97;;;0.90;;
55684;SDS011;41883;49.544;8.646;2022-09-09T07:00:35;2.47;;;0.80;;
55684;SDS011;41883;49.544;8.646;2022-09-09T07:03:03;2.15;;;0.70;;
55684;SDS011;41883;49.544;8.646;2022-09-09T07:05:30;3.10;;;0.90;;
55684;SDS011;41883;49.544;8.646;2022-09-09T07:07:55;2.38;;;0.80;;
55684;SDS011;41883;49.544;8.646;2022-09-09T07:10:20;2.47;;;1.03;;
55684;SDS011;41883;49.544;8.646;2022-09-09T07:12:49;1.30;;;0.70;;
55684;SDS011;41883;49.544;8.646;2022-09-09T07:15:16;2.80;;;0.85;;
55684;SDS011;41883;49.544;8.646;2022-09-09T07:17:43;2.72;;;0.93;;
55684;SDS011;41883;49.544;8.646;2022-09-09T07:20:09;5.28;;;1.00;;
55684;SDS011;41883;49.544;8.646;2022-09-09T07:22:35;3.13;;;0.90;;
55684;SDS011;41883;49.544;8.646;2022-09-09T07:25:00;1.57;;;0.73;;
55684;SDS011;41883;49.544;8.646;2022-09-09T07:27:27;2.72;;;1.00;;
55684;SDS011;41883;49.544;8.646;2022-09-09T07:29:52;3.63;;;0.90;;
55684;SDS011;41883;49.544;8.646;2022-09-09T07:32:19;2.83;;;0.80;;
55684;SDS011;41883;49.544;8.646;2022-09-09T07:34:45;2.30;;;0.80;;
55684;SDS011;41883;49.544;8.646;2022-09-09T07:37:11;3.20;;;1.10;;
55684;SDS011;41883;49.544;8.646;2022-09-09T07:39:38;3.25;;;0.90;;
55684;SDS011;41883;49.544;8.646;2022-09-09T07:42:03;3.65;;;1.00;;
55684;SDS011;41883;49.544;8.646;2022-09-09T07:44:29;3.53;;;1.15;;
55684;SDS011;41883;49.544;8.646;2022-09-09T07:46:57;2.05;;;0.85;;
55684;SDS011;41883;49.544;8.646;2022-09-09T07:49:22;2.40;;;0.80;;
55684;SDS011;41883;49.544;8.646;2022-09-09T07:51:48;5.45;;;1.27;;
55684;SDS011;41883;49.544;8.646;2022-09-09T07:54:15;2.60;;;0.80;;
55684;SDS011;41883;49.544;8.646;2022-09-09T07:56:42;2.80;;;0.80;;
55684;SDS011;41883;49.544;8.646;2022-09-09T07:59:07;2.85;;;0.90;;
55684;SDS011;41883;49.544;8.646;2022-09-09T08:01:35;3.05;;;0.88;;
55684;SDS011;41883;49.544;8.646;2022-09-09T08:04:05;3.78;;;1.02;;
55684;SDS011;41883;49.544;8.646;2022-09-09T08:06:34;3.15;;;1.00;;
55684;SDS011;41883;49.544;8.646;2022-09-09T08:09:02;3.25;;;1.08;;
55684;SDS011;41883;49.544;8.646;2022-09-09T08:11:28;3.75;;;1.10;;
55684;SDS011;41883;49.544;8.646;2022-09-09T08:13:55;3.75;;;1.10;;
55684;SDS011;41883;49.544;8.646;2022-09-09T08:16:24;5.93;;;1.20;;
55684;SDS011;41883;49.544;8.646;2022-09-09T08:18:52;5.22;;;1.10;;
55684;SDS011;41883;49.544;8.646;2022-09-09T08:21:20;5.32;;;1.30;;
55684;SDS011;41883;49.544;8.646;2022-09-09T08:23:50;4.45;;;1.17;;
55684;SDS011;41883;49.544;8.646;2022-09-09T08:26:18;4.28;;;1.27;;
55684;SDS011;41883;49.544;8.646;2022-09-09T08:28:48;3.73;;;0.93;;
55684;SDS011;41883;49.544;8.646;2022-09-09T08:31:17;3.58;;;1.25;;
55684;SDS011;41883;49.544;8.646;2022-09-09T08:33:44;3.90;;;1.10;;
55684;SDS011;41883;49.544;8.646;2022-09-09T08:36:12;3.00;;;1.00;;
55684;SDS011;41883;49.544;8.646;2022-09-09T08:38:40;3.05;;;0.80;;
55684;SDS011;41883;49.544;8.646;2022-09-09T08:43:46;3.77;;;1.30;;
55684;SDS011;41883;49.544;8.646;2022-09-09T08:46:59;6.43;;;1.15;;
55684;SDS011;41883;49.544;8.646;2022-09-09T08:51:58;5.07;;;1.50;;
55684;SDS011;41883;49.544;8.646;2022-09-09T08:54:24;2.47;;;1.00;;
55684;SDS011;41883;49.544;8.646;2022-09-09T08:56:57;3.80;;;1.00;;
55684;SDS011;41883;49.544;8.646;2022-09-09T08:59:22;4.30;;;1.10;;
55684;SDS011;41883;49.544;8.646;2022-09-09T09:01:57;3.00;;;0.90;;
55684;SDS011;41883;49.544;8.646;2022-09-09T09:04:37;4.40;;;0.82;;
55684;SDS011;41883;49.544;8.646;2022-09-09T09:09:57;4.65;;;1.23;;
55684;SDS011;41883;49.544;8.646;2022-09-09T09:12:35;2.77;;;1.23;;
55684;SDS011;41883;49.544;8.646;2022-09-09T09:15:11;4.57;;;1.20;;
55684;SDS011;41883;49.544;8.646;2022-09-09T09:17:43;2.33;;;1.00;;
55684;SDS011;41883;49.544;8.646;2022-09-09T09:20:16;6.35;;;1.20;;
55684;SDS011;41883;49.544;8.646;2022-09-09T09:22:49;3.50;;;1.02;;
55684;SDS011;41883;49.544;8.646;2022-09-09T09:25:18;3.80;;;0.95;;
55684;SDS011;41883;49.544;8.646;2022-09-09T09:30:35;3.70;;;1.10;;
55684;SDS011;41883;49.544;8.646;2022-09-09T09:33:10;4.18;;;1.10;;
55684;SDS011;41883;49.544;8.646;2022-09-09T09:35:40;5.55;;;1.02;;
55684;SDS011;41883;49.544;8.646;2022-09-09T09:38:12;1.85;;;0.70;;
55684;SDS011;41883;49.544;8.646;2022-09-09T09:40:52;4.72;;;1.10;;
55684;SDS011;41883;49.544;8.646;2022-09-09T09:43:29;3.17;;;0.80;;
55684;SDS011;41883;49.544;8.646;2022-09-09T09:45:56;2.78;;;0.90;;
55684;SDS011;41883;49.544;8.646;2022-09-09T09:48:23;3.53;;;0.88;;
55684;SDS011;41883;49.544;8.646;2022-09-09T09:50:53;4.80;;;1.40;;
55684;SDS011;41883;49.544;8.646;2022-09-09T09:53:26;4.82;;;1.10;;
55684;SDS011;41883;49.544;8.646;2022-09-09T10:01:21;3.83;;;1.10;;
55684;SDS011;41883;49.544;8.646;2022-09-09T10:03:53;3.00;;;0.93;;
55684;SDS011;41883;49.544;8.646;2022-09-09T10:06:34;4.30;;;0.90;;
55684;SDS011;41883;49.544;8.646;2022-09-09T10:14:16;3.65;;;1.05;;
55684;SDS011;41883;49.544;8.646;2022-09-09T10:19:51;4.63;;;1.30;;
55684;SDS011;41883;49.544;8.646;2022-09-09T10:22:27;6.25;;;1.52;;
55684;SDS011;41883;49.544;8.646;2022-09-09T10:25:09;7.63;;;1.90;;
55684;SDS011;41883;49.544;8.646;2022-09-09T10:27:46;4.07;;;1.23;;
55684;SDS011;41883;49.544;8.646;2022-09-09T10:30:23;3.15;;;1.00;;
55684;SDS011;41883;49.544;8.646;2022-09-09T10:33:09;3.13;;;0.95;;
55684;SDS011;41883;49.544;8.646;2022-09-09T10:38:29;2.65;;;0.70;;
55684;SDS011;41883;49.544;8.646;2022-09-09T10:57:06;3.05;;;0.80;;
55684;SDS011;41883;49.544;8.646;2022-09-09T10:59:40;5.13;;;1.27;;
55684;SDS011;41883;49.544;8.646;2022-09-09T11:04:45;4.32;;;1.10;;
55684;SDS011;41883;49.544;8.646;2022-09-09T11:07:22;3.80;;;1.08;;
55684;SDS011;41883;49.544;8.646;2022-09-09T11:09:55;2.42;;;0.70;;
55684;SDS011;41883;49.544;8.646;2022-09-09T11:12:25;4.15;;;1.00;;
55684;SDS011;41883;49.544;8.646;2022-09-09T11:15:04;4.07;;;1.00;;
55684;SDS011;41883;49.544;8.646;2022-09-09T11:20:12;3.13;;;0.95;;
55684;SDS011;41883;49.544;8.646;2022-09-09T11:25:34;3.17;;;0.98;;
55684;SDS011;41883;49.544;8.646;2022-09-09T11:36:28;2.22;;;0.80;;
55684;SDS011;41883;49.544;8.646;2022-09-09T11:42:07;3.05;;;1.00;;
55684;SDS011;41883;49.544;8.646;2022-09-09T11:44:43;3.60;;;1.00;;
55684;SDS011;41883;49.544;8.646;2022-09-09T11:52:41;2.05;;;0.68;;
55684;SDS011;41883;49.544;8.646;2022-09-09T11:55:30;3.38;;;1.00;;
55684;SDS011;41883;49.544;8.646;2022-09-09T12:00:41;2.80;;;1.00;;
55684;SDS011;41883;49.544;8.646;2022-09-09T12:06:33;2.10;;;0.80;;
55684;SDS011;41883;49.544;8.646;2022-09-09T12:09:12;3.00;;;0.90;;
55684;SDS011;41883;49.544;8.646;2022-09-09T12:11:50;3.67;;;0.98;;
55684;SDS011;41883;49.544;8.646;2022-09-09T12:17:23;3.30;;;0.98;;
55684;SDS011;41883;49.544;8.646;2022-09-09T12:20:11;3.78;;;0.88;;
55684;SDS011;41883;49.544;8.646;2022-09-09T12:28:27;3.17;;;1.30;;
55684;SDS011;41883;49.544;8.646;2022-09-09T12:31:15;2.63;;;0.75;;
55684;SDS011;41883;49.544;8.646;2022-09-09T12:33:48;2.97;;;1.00;;
55684;SDS011;41883;49.544;8.646;2022-09-09T12:36:15;4.82;;;0.80;;
55684;SDS011;41883;49.544;8.646;2022-09-09T12:38:44;2.08;;;0.70;;
55684;SDS011;41883;49.544;8.646;2022-09-09T12:41:23;1.77;;;0.40;;
55684;SDS011;41883;49.544;8.646;2022-09-09T12:43:50;5.03;;;0.90;;
55684;SDS011;41883;49.544;8.646;2022-09-09T12:46:21;3.40;;;0.80;;
55684;SDS011;41883;49.544;8.646;2022-09-09T12:48:57;2.00;;;0.70;;
55684;SDS011;41883;49.544;8.646;2022-09-09T12:51:32;4.43;;;0.90;;
55684;SDS011;41883;49.544;8.646;2022-09-09T12:53:58;2.33;;;0.73;;
55684;SDS011;41883;49.544;8.646;2022-09-09T12:56:25;3.25;;;0.90;;
55684;SDS011;41883;49.544;8.646;2022-09-09T12:58:55;4.40;;;0.90;;
55684;SDS011;41883;49.544;8.646;2022-09-09T13:01:24;3.83;;;0.90;;
55684;SDS011;41883;49.544;8.646;2022-09-09T13:03:51;5.63;;;0.93;;
55684;SDS011;41883;49.544;8.646;2022-09-09T13:06:19;3.50;;;1.10;;
55684;SDS011;41883;49.544;8.646;2022-09-09T13:08:53;4.00;;;1.13;;
55684;SDS011;41883;49.544;8.646;2022-09-09T13:11:21;2.17;;;0.70;;
55684;SDS011;41883;49.544;8.646;2022-09-09T13:14:04;2.58;;;0.82;;
55684;SDS011;41883;49.544;8.646;2022-09-09T13:16:32;2.13;;;0.70;;
55684;SDS011;41883;49.544;8.646;2022-09-09T13:19:00;2.15;;;0.70;;
55684;SDS011;41883;49.544;8.646;2022-09-09T13:21:39;1.77;;;0.80;;
55684;SDS011;41883;49.544;8.646;2022-09-09T13:24:06;2.10;;;0.80;;
55684;SDS011;41883;49.544;8.646;2022-09-09T13:26:56;2.42;;;0.70;;
55684;SDS011;41883;49.544;8.646;2022-09-09T13:29:23;2.42;;;0.70;;
55684;SDS011;41883;49.544;8.646;2022-09-09T13:31:49;3.72;;;0.80;;
55684;SDS011;41883;49.544;8.646;2022-09-09T13:34:30;1.40;;;0.60;;
55684;SDS011;41883;49.544;8.646;2022-09-09T13:37:01;2.95;;;0.80;;
55684;SDS011;41883;49.544;8.646;2022-09-09T13:41:54;3.20;;;0.95;;
55684;SDS011;41883;49.544;8.646;2022-09-09T13:44:30;2.35;;;0.70;;
55684;SDS011;41883;49.544;8.646;2022-09-09T13:47:05;3.30;;;1.00;;
55684;SDS011;41883;49.544;8.646;2022-09-09T13:49:42;3.03;;;1.00;;
55684;SDS011;41883;49.544;8.646;2022-09-09T13:54:38;3.80;;;1.05;;
55684;SDS011;41883;49.544;8.646;2022-09-09T13:57:04;2.63;;;0.63;;
55684;SDS011;41883;49.544;8.646;2022-09-09T13:59:30;2.13;;;0.60;;
55684;SDS011;41883;49.544;8.646;2022-09-09T14:01:56;1.90;;;0.70;;
55684;SDS011;41883;49.544;8.646;2022-09-09T14:04:22;3.58;;;0.90;;
55684;SDS011;41883;49.544;8.646;2022-09-09T14:06:47;2.47;;;0.80;;
55684;SDS011;41883;49.544;8.646;2022-09-09T14:09:14;4.95;;;0.90;;
55684;SDS011;41883;49.544;8.646;2022-09-09T14:11:41;4.03;;;1.27;;
55684;SDS011;41883;49.544;8.646;2022-09-09T14:14:07;3.40;;;1.02;;
55684;SDS011;41883;49.544;8.646;2022-09-09T14:16:34;3.92;;;1.10;;
55684;SDS011;41883;49.544;8.646;2022-09-09T14:18:59;3.92;;;1.20;;
55684;SDS011;41883;49.544;8.646;2022-09-09T14:21:25;2.38;;;1.00;;
55684;SDS011;41883;49.544;8.646;2022-09-09T14:23:51;2.63;;;0.98;;
55684;SDS011;41883;49.544;8.646;2022-09-09T14:26:17;3.47;;;1.10;;
55684;SDS011;41883;49.544;8.646;2022-09-09T14:28:43;3.97;;;1.00;;
55684;SDS011;41883;49.544;8.646;2022-09-09T14:31:10;2.88;;;0.90;;
55684;SDS011;41883;49.544;8.646;2022-09-09T14:33:35;1.67;;;0.60;;
55684;SDS011;41883;49.544;8.646;2022-09-09T14:36:01;2.00;;;0.52;;
55684;SDS011;41883;49.544;8.646;2022-09-09T14:38:28;2.08;;;0.70;;
55684;SDS011;41883;49.544;8.646;2022-09-09T14:40:55;2.05;;;0.63;;
55684;SDS011;41883;49.544;8.646;2022-09-09T14:43:21;1.08;;;0.50;;
55684;SDS011;41883;49.544;8.646;2022-09-09T14:45:46;0.85;;;0.40;;
55684;SDS011;41883;49.544;8.646;2022-09-09T14:48:13;1.98;;;0.70;;
55684;SDS011;41883;49.544;8.646;2022-09-09T14:50:39;2.67;;;0.60;;
55684;SDS011;41883;49.544;8.646;2022-09-09T14:53:05;1.27;;;0.40;;
55684;SDS011;41883;49.544;8.646;2022-09-09T14:55:31;2.95;;;0.55;;
55684;SDS011;41883;49.544;8.646;2022-09-09T14:57:56;1.60;;;0.60;;
55684;SDS011;41883;49.544;8.646;2022-09-09T15:00:21;2.03;;;0.60;;
55684;SDS011;41883;49.544;8.646;2022-09-09T15:02:47;1.75;;;0.40;;
55684;SDS011;41883;49.544;8.646;2022-09-09T15:05:12;2.30;;;0.52;;
55684;SDS011;41883;49.544;8.646;2022-09-09T15:07:38;2.70;;;0.60;;
55684;SDS011;41883;49.544;8.646;2022-09-09T15:10:03;1.73;;;0.70;;
55684;SDS011;41883;49.544;8.646;2022-09-09T15:12:29;3.78;;;0.82;;
55684;SDS011;41883;49.544;8.646;2022-09-09T15:14:54;2.55;;;0.90;;
55684;SDS011;41883;49.544;8.646;2022-09-09T15:17:19;2.42;;;0.95;;
55684;SDS011;41883;49.544;8.646;2022-09-09T15:19:45;2.03;;;0.60;;
55684;SDS011;41883;49.544;8.646;2022-09-09T15:22:10;1.80;;;0.77;;
55684;SDS011;41883;49.544;8.646;2022-09-09T15:24:36;2.03;;;0.70;;
55684;SDS011;41883;49.544;8.646;2022-09-09T15:27:01;1.45;;;0.70;;
55684;SDS011;41883;49.544;8.646;2022-09-09T15:29:27;1.90;;;0.80;;
55684;SDS011;41883;49.544;8.646;2022-09-09T15:31:55;2.30;;;0.70;;
55684;SDS011;41883;49.544;8.646;2022-09-09T15:34:21;2.55;;;0.93;;
55684;SDS011;41883;49.544;8.646;2022-09-09T15:36:47;1.90;;;0.70;;
55684;SDS011;41883;49.544;8.646;2022-09-09T15:39:15;2.92;;;0.88;;
55684;SDS011;41883;49.544;8.646;2022-09-09T15:41:42;1.48;;;0.60;;
55684;SDS011;41883;49.544;8.646;2022-09-09T15:44:08;1.77;;;0.70;;
55684;SDS011;41883;49.544;8.646;2022-09-09T15:46:43;2.78;;;0.80;;
55684;SDS011;41883;49.544;8.646;2022-09-09T15:49:10;1.88;;;0.90;;
55684;SDS011;41883;49.544;8.646;2022-09-09T15:51:41;3.37;;;0.60;;
55684;SDS011;41883;49.544;8.646;2022-09-09T15:54:08;3.38;;;0.60;;
55684;SDS011;41883;49.544;8.646;2022-09-09T15:56:45;2.10;;;0.80;;
55684;SDS011;41883;49.544;8.646;2022-09-09T15:59:12;1.90;;;0.77;;
55684;SDS011;41883;49.544;8.646;2022-09-09T16:01:39;2.83;;;0.80;;
55684;SDS011;41883;49.544;8.646;2022-09-09T16:04:05;2.65;;;0.68;;
55684;SDS011;41883;49.544;8.646;2022-09-09T16:06:31;1.02;;;0.50;;
55684;SDS011;41883;49.544;8.646;2022-09-09T16:08:58;1.65;;;0.60;;
55684;SDS011;41883;49.544;8.646;2022-09-09T16:11:26;3.53;;;1.10;;
55684;SDS011;41883;49.544;8.646;2022-09-09T16:13:56;3.88;;;1.40;;
55684;SDS011;41883;49.544;8.646;2022-09-09T16:16:23;1.88;;;0.90;;
55684;SDS011;41883;49.544;8.646;2022-09-09T16:18:51;2.03;;;0.80;;
55684;SDS011;41883;49.544;8.646;2022-09-09T16:21:23;3.10;;;0.82;;
55684;SDS011;41883;49.544;8.646;2022-09-09T16:23:53;1.45;;;0.70;;
55684;SDS011;41883;49.544;8.646;2022-09-09T16:26:18;1.05;;;0.55;;
55684;SDS011;41883;49.544;8.646;2022-09-09T16:28:44;0.77;;;0.50;;
55684;SDS011;41883;49.544;8.646;2022-09-09T16:31:12;1.92;;;0.60;;
55684;SDS011;41883;49.544;8.646;2022-09-09T16:33:39;2.10;;;0.80;;
55684;SDS011;41883;49.544;8.646;2022-09-09T16:36:11;1.20;;;0.50;;
55684;SDS011;41883;49.544;8.646;2022-09-09T16:38:40;0.98;;;0.60;;
55684;SDS011;41883;49.544;8.646;2022-09-09T16:41:07;1.15;;;0.50;;
55684;SDS011;41883;49.544;8.646;2022-09-09T16:43:34;0.80;;;0.60;;
55684;SDS011;41883;49.544;8.646;2022-09-09T16:46:01;0.80;;;0.50;;
55684;SDS011;41883;49.544;8.646;2022-09-09T16:51:05;0.77;;;0.55;;
55684;SDS011;41883;49.544;8.646;2022-09-09T16:53:35;1.02;;;0.60;;
55684;SDS011;41883;49.544;8.646;2022-09-09T16:56:07;0.90;;;0.63;;
55684;SDS011;41883;49.544;8.646;2022-09-09T16:58:33;2.10;;;1.00;;
55684;SDS011;41883;49.544;8.646;2022-09-09T17:00:59;1.45;;;0.95;;
55684;SDS011;41883;49.544;8.646;2022-09-09T17:03:26;2.42;;;0.90;;
55684;SDS011;41883;49.544;8.646;2022-09-09T17:05:52;1.95;;;1.10;;
55684;SDS011;41883;49.544;8.646;2022-09-09T17:08:17;1.20;;;0.80;;
55684;SDS011;41883;49.544;8.646;2022-09-09T17:10:42;1.43;;;0.90;;